Time;durP1;ratioP1;P1;durP2;ratioP2;P2;SDS_P1;SDS_P2;PMS_P1;PMS_P2;Temp;Humidity;BMP_temperature;BMP_pressure;BME280_temperature;BME280_humidity;BME280_pressure;Samples;Min_cycle;Max_cycle;Signal;HPM_P1;HPM_P2
2023/03/03 00:01:02;;;;;;;112.53;51.53;;;1.90;99.90;;;;;;5019933;28;20040;-56
2023/03/03 00:03:28;;;;;;;105.55;48.95;;;1.90;99.90;;;;;;5012543;28;20462;-56
2023/03/03 00:05:53;;;;;;;102.25;49.63;;;1.80;99.90;;;;;;5016953;28;20048;-57
2023/03/03 00:08:20;;;;;;;100.82;44.20;;;1.80;99.90;;;;;;5010989;28;20037;-57
2023/03/03 00:10:46;;;;;;;100.97;47.90;;;1.90;99.90;;;;;;5016007;28;20045;-57
2023/03/03 00:13:20;;;;;;;97.85;46.95;;;1.90;99.90;;;;;;5009995;28;20127;-56
2023/03/03 00:15:47;;;;;;;106.78;48.45;;;2.00;99.90;;;;;;5026523;28;20052;-58
2023/03/03 00:18:34;;;;;;;103.22;48.05;;;2.10;99.90;;;;;;5001989;28;20049;-57
2023/03/03 00:21:03;;;;;;;99.70;48.75;;;2.00;99.90;;;;;;5015974;28;20146;-57
2023/03/03 00:23:36;;;;;;;103.90;48.25;;;2.20;99.90;;;;;;5015763;28;20137;-57
2023/03/03 00:26:30;;;;;;;104.05;49.50;;;2.20;99.90;;;;;;5022628;28;20039;-56
2023/03/03 00:29:00;;;;;;;106.95;45.15;;;2.00;99.90;;;;;;5021732;28;20427;-56
2023/03/03 00:31:34;;;;;;;102.57;49.40;;;2.00;99.90;;;;;;5015898;28;20397;-57
2023/03/03 00:34:22;;;;;;;102.38;47.55;;;1.90;99.90;;;;;;5022945;28;20061;-57
2023/03/03 00:36:53;;;;;;;106.93;45.90;;;2.00;99.90;;;;;;5025291;28;20121;-57
2023/03/03 00:39:38;;;;;;;109.00;49.78;;;1.90;99.90;;;;;;5014419;28;20046;-56
2023/03/03 00:42:14;;;;;;;100.68;44.33;;;1.90;99.90;;;;;;5016915;28;20611;-56
2023/03/03 00:44:45;;;;;;;94.82;41.25;;;1.90;99.90;;;;;;5012682;28;20030;-57
2023/03/03 00:47:43;;;;;;;90.78;44.17;;;2.00;99.90;;;;;;5023129;28;20034;-56
2023/03/03 00:50:08;;;;;;;94.85;45.97;;;1.80;99.90;;;;;;4993366;28;20664;-57
2023/03/03 00:52:37;;;;;;;93.72;43.35;;;1.90;99.90;;;;;;5046278;28;20047;-57
2023/03/03 00:55:03;;;;;;;100.22;47.70;;;1.80;99.90;;;;;;5042798;28;20093;-57
2023/03/03 00:57:29;;;;;;;99.63;48.08;;;1.80;99.90;;;;;;5044304;28;20037;-57
2023/03/03 00:59:55;;;;;;;92.75;42.00;;;1.80;99.90;;;;;;5045817;28;20037;-56
2023/03/03 01:02:20;;;;;;;99.82;46.85;;;1.90;99.90;;;;;;5038564;28;20045;-57
2023/03/03 01:04:50;;;;;;;99.78;46.03;;;1.90;99.90;;;;;;5042044;28;20487;-57
2023/03/03 01:07:16;;;;;;;113.95;55.25;;;2.00;99.90;;;;;;5041292;28;20028;-57
2023/03/03 01:09:41;;;;;;;108.10;47.13;;;2.10;99.90;;;;;;5025640;28;20404;-57
2023/03/03 01:12:07;;;;;;;114.20;50.83;;;2.00;99.90;;;;;;5037077;28;20040;-56
2023/03/03 01:14:33;;;;;;;131.98;60.45;;;1.90;99.90;;;;;;5045168;28;20040;-57
2023/03/03 01:16:59;;;;;;;117.93;59.55;;;1.90;99.90;;;;;;5028483;28;20584;-56
2023/03/03 01:19:24;;;;;;;123.70;58.80;;;2.00;99.90;;;;;;5042464;28;20048;-57
2023/03/03 01:21:50;;;;;;;122.13;57.60;;;1.90;99.90;;;;;;5041307;28;20043;-57
2023/03/03 01:24:16;;;;;;;85.20;40.08;;;2.00;99.90;;;;;;5045975;28;20120;-57
2023/03/03 01:26:41;;;;;;;107.07;51.67;;;1.90;99.90;;;;;;5022573;28;20064;-58
2023/03/03 01:29:07;;;;;;;97.25;49.13;;;2.00;99.90;;;;;;5026116;28;20057;-55
2023/03/03 01:31:33;;;;;;;107.75;54.35;;;2.00;99.90;;;;;;5043803;28;20037;-57
2023/03/03 01:33:59;;;;;;;101.88;48.13;;;2.00;99.90;;;;;;5035999;28;20048;-57
2023/03/03 01:36:26;;;;;;;112.72;53.28;;;2.00;99.90;;;;;;5039379;28;20112;-57
2023/03/03 01:38:52;;;;;;;107.13;52.97;;;2.00;99.90;;;;;;5039397;28;20502;-57
2023/03/03 01:41:18;;;;;;;103.75;48.65;;;2.10;99.90;;;;;;5006583;28;20120;-57
2023/03/03 01:43:46;;;;;;;97.72;47.03;;;2.20;99.90;;;;;;5039328;28;20037;-58
2023/03/03 01:46:30;;;;;;;94.88;42.90;;;2.10;99.90;;;;;;5032910;28;20046;-56
2023/03/03 01:49:02;;;;;;;94.20;45.08;;;1.90;99.90;;;;;;5039312;28;20416;-57
2023/03/03 01:51:35;;;;;;;96.40;42.85;;;1.90;99.90;;;;;;5030366;28;20045;-56
2023/03/03 01:54:02;;;;;;;;;;;1.90;99.90;;;;;;5026205;28;20037;-57
2023/03/03 01:56:28;;;;;;;80.28;40.80;;;1.90;99.90;;;;;;5036576;28;19913;-57
2023/03/03 01:59:09;;;;;;;80.90;39.40;;;2.00;99.90;;;;;;5038837;28;20041;-56
2023/03/03 02:01:35;;;;;;;86.75;43.15;;;2.00;99.90;;;;;;5022269;28;20116;-56
2023/03/03 02:04:00;;;;;;;87.63;42.42;;;2.00;99.90;;;;;;5019430;28;20539;-57
2023/03/03 02:06:36;;;;;;;86.40;40.28;;;2.10;99.90;;;;;;5024354;28;20136;-57
2023/03/03 02:09:10;;;;;;;94.75;45.88;;;2.00;99.90;;;;;;5011977;28;20365;-55
2023/03/03 02:11:37;;;;;;;104.82;49.90;;;2.00;99.90;;;;;;5019488;28;20471;-57
2023/03/03 02:14:03;;;;;;;103.05;50.50;;;1.90;99.90;;;;;;5022230;28;20133;-56
2023/03/03 02:16:29;;;;;;;91.18;39.13;;;2.00;99.90;;;;;;5024425;28;20140;-57
2023/03/03 02:18:55;;;;;;;93.65;41.38;;;1.90;99.90;;;;;;5022630;28;20030;-57
2023/03/03 02:21:23;;;;;;;106.20;47.92;;;1.90;99.90;;;;;;5020263;28;20475;-57
2023/03/03 02:24:10;;;;;;;105.93;47.95;;;;;;;;;;5022278;28;20042;-56
2023/03/03 02:26:40;;;;;;;102.30;45.72;;;2.10;99.90;;;;;;5017950;28;20493;-57
2023/03/03 02:29:06;;;;;;;102.00;46.58;;;2.10;99.90;;;;;;5008044;28;20061;-57
2023/03/03 02:31:32;;;;;;;110.70;50.65;;;1.90;99.90;;;;;;5017246;28;20044;-57
2023/03/03 02:33:58;;;;;;;108.80;51.65;;;1.90;99.90;;;;;;5012588;28;20037;-57
2023/03/03 02:36:30;;;;;;;124.05;55.58;;;2.00;99.90;;;;;;5023552;28;20033;-56
2023/03/03 02:39:09;;;;;;;134.77;57.33;;;1.90;99.90;;;;;;5025318;28;20112;-57
2023/03/03 02:41:48;;;;;;;124.03;55.30;;;1.90;99.90;;;;;;5018509;28;20481;-57
2023/03/03 02:44:23;;;;;;;126.28;55.95;;;2.00;99.90;;;;;;5024012;28;20553;-57
2023/03/03 02:46:51;;;;;;;146.82;61.58;;;1.80;99.90;;;;;;5024349;28;20098;-57
2023/03/03 02:49:22;;;;;;;153.20;60.95;;;2.00;99.90;;;;;;5022395;28;20041;-56
2023/03/03 02:51:48;;;;;;;145.32;61.35;;;1.90;99.90;;;;;;5023490;28;20048;-57
2023/03/03 02:54:16;;;;;;;132.45;56.08;;;1.90;99.90;;;;;;5015486;28;20034;-57
2023/03/03 02:56:42;;;;;;;82.65;29.02;;;1.80;99.90;;;;;;5020962;28;20053;-56
2023/03/03 02:59:08;;;;;;;127.63;57.08;;;1.70;99.90;;;;;;5016059;28;20132;-56
2023/03/03 03:01:35;;;;;;;133.70;60.08;;;1.70;99.90;;;;;;5020821;28;20113;-57
2023/03/03 03:04:13;;;;;;;129.18;60.30;;;1.80;99.90;;;;;;5019868;28;20844;-56
2023/03/03 03:06:39;;;;;;;114.07;52.42;;;1.90;99.90;;;;;;5004506;28;20120;-57
2023/03/03 03:09:06;;;;;;;111.72;51.97;;;1.90;99.90;;;;;;5020418;28;20033;-57
2023/03/03 03:11:34;;;;;;;118.50;55.85;;;1.80;99.90;;;;;;5023963;28;20175;-57
2023/03/03 03:14:00;;;;;;;118.43;54.35;;;1.90;99.90;;;;;;5022161;28;20148;-56
2023/03/03 03:16:25;;;;;;;118.80;54.78;;;2.00;99.90;;;;;;5024135;28;20128;-57
2023/03/03 03:18:51;;;;;;;115.90;51.65;;;2.00;99.90;;;;;;5022052;28;20179;-57
2023/03/03 03:21:17;;;;;;;116.88;52.20;;;1.80;99.90;;;;;;5017288;28;20472;-57
2023/03/03 03:23:42;;;;;;;111.80;53.45;;;1.90;99.90;;;;;;5023248;28;20045;-57
2023/03/03 03:26:08;;;;;;;121.22;53.30;;;2.00;99.90;;;;;;5018148;28;20045;-57
2023/03/03 03:28:35;;;;;;;119.00;51.17;;;2.10;99.90;;;;;;5021714;28;20351;-57
2023/03/03 03:31:01;;;;;;;106.63;48.10;;;2.10;99.90;;;;;;5018430;28;20056;-57
2023/03/03 03:33:27;;;;;;;108.28;50.83;;;2.10;99.90;;;;;;5023826;28;20033;-56
2023/03/03 03:35:54;;;;;;;112.90;52.50;;;2.20;99.90;;;;;;5021618;28;20124;-57
2023/03/03 03:38:21;;;;;;;98.30;45.97;;;2.00;99.90;;;;;;5016985;28;20186;-57
2023/03/03 03:40:47;;;;;;;102.78;46.45;;;2.10;99.90;;;;;;5012146;28;20391;-56
2023/03/03 03:43:12;;;;;;;95.93;44.38;;;2.00;99.90;;;;;;5021195;28;20155;-57
2023/03/03 03:45:40;;;;;;;101.43;48.40;;;2.20;99.90;;;;;;5022675;28;20468;-57
2023/03/03 03:48:06;;;;;;;98.50;47.47;;;2.10;99.90;;;;;;5004350;28;20123;-57
2023/03/03 03:50:31;;;;;;;94.70;42.45;;;2.10;99.90;;;;;;5021589;28;20123;-57
2023/03/03 03:52:57;;;;;;;104.70;45.92;;;2.00;99.90;;;;;;5010668;28;20045;-57
2023/03/03 03:55:23;;;;;;;100.15;40.00;;;2.10;99.90;;;;;;5019054;28;20037;-57
2023/03/03 03:57:48;;;;;;;104.97;46.78;;;1.90;99.90;;;;;;5022133;28;20460;-56
2023/03/03 04:00:14;;;;;;;110.32;47.92;;;1.80;99.90;;;;;;5017948;28;20045;-56
2023/03/03 04:02:40;;;;;;;111.60;48.08;;;1.80;99.90;;;;;;5019467;28;20049;-57
2023/03/03 04:05:06;;;;;;;111.82;47.60;;;1.80;99.90;;;;;;5016222;28;20076;-57
2023/03/03 04:07:32;;;;;;;110.88;48.50;;;1.80;99.90;;;;;;4999624;28;20033;-57
2023/03/03 04:09:57;;;;;;;90.22;35.47;;;1.80;99.90;;;;;;5021223;28;20089;-57
2023/03/03 04:12:23;;;;;;;135.15;55.13;;;1.70;99.90;;;;;;5018616;28;20034;-57
2023/03/03 04:14:48;;;;;;;121.22;53.20;;;1.60;99.90;;;;;;5021788;28;20049;-57
2023/03/03 04:17:19;;;;;;;119.43;50.15;;;1.70;99.90;;;;;;5015272;28;20045;-56
2023/03/03 04:19:45;;;;;;;105.35;42.65;;;1.60;99.90;;;;;;5016685;28;20044;-56
2023/03/03 04:22:12;;;;;;;100.95;36.22;;;1.60;99.90;;;;;;5021618;28;20480;-57
2023/03/03 04:24:38;;;;;;;91.90;36.08;;;1.60;99.90;;;;;;5022106;28;20116;-56
2023/03/03 04:27:04;;;;;;;102.50;40.40;;;1.60;99.90;;;;;;5020718;28;20030;-57
2023/03/03 04:29:30;;;;;;;100.43;35.88;;;1.60;99.90;;;;;;5012686;28;20038;-57
2023/03/03 04:31:55;;;;;;;114.45;42.78;;;1.60;99.90;;;;;;5014043;28;20441;-57
2023/03/03 04:34:21;;;;;;;108.32;42.15;;;1.60;99.90;;;;;;5020952;28;20083;-56
2023/03/03 04:36:46;;;;;;;102.38;39.97;;;1.50;99.90;;;;;;5015434;28;20724;-57
2023/03/03 04:39:12;;;;;;;103.97;42.33;;;1.60;99.90;;;;;;5012227;28;20460;-56
2023/03/03 04:41:37;;;;;;;100.38;38.97;;;1.60;99.90;;;;;;5013122;28;20463;-56
2023/03/03 04:44:03;;;;;;;100.53;40.35;;;1.50;99.90;;;;;;5021920;28;20142;-57
2023/03/03 04:46:29;;;;;;;101.95;38.63;;;1.50;99.90;;;;;;5019655;28;20105;-57
2023/03/03 04:48:55;;;;;;;112.70;43.28;;;1.50;99.90;;;;;;5022767;28;20057;-57
2023/03/03 04:51:21;;;;;;;104.90;38.75;;;1.50;99.90;;;;;;5008353;28;20038;-57
2023/03/03 04:53:47;;;;;;;108.13;45.55;;;1.50;99.90;;;;;;5018213;28;20505;-57
2023/03/03 04:56:12;;;;;;;118.97;46.85;;;1.60;99.90;;;;;;4999681;28;20175;-56
2023/03/03 04:58:38;;;;;;;114.80;43.50;;;1.90;99.90;;;;;;5011948;28;20034;-56
2023/03/03 05:01:04;;;;;;;123.20;49.92;;;1.70;99.90;;;;;;5014782;28;20237;-56
2023/03/03 05:03:30;;;;;;;144.52;59.28;;;1.50;99.90;;;;;;5022051;28;20041;-57
2023/03/03 05:05:55;;;;;;;155.38;61.65;;;1.60;99.90;;;;;;5021933;28;20032;-56
2023/03/03 05:08:21;;;;;;;161.50;65.32;;;1.60;99.90;;;;;;5018084;28;20103;-57
2023/03/03 05:10:51;;;;;;;142.07;57.22;;;1.60;99.90;;;;;;5008927;28;20246;-57
2023/03/03 05:13:16;;;;;;;141.82;59.70;;;1.60;99.90;;;;;;5007376;28;20030;-57
2023/03/03 05:15:42;;;;;;;159.85;67.28;;;1.40;99.90;;;;;;5007745;28;20437;-57
2023/03/03 05:18:07;;;;;;;141.48;56.50;;;1.50;99.90;;;;;;5007775;28;20481;-57
2023/03/03 05:20:33;;;;;;;156.95;61.28;;;1.40;99.90;;;;;;5026379;28;20041;-56
2023/03/03 05:23:00;;;;;;;159.93;63.85;;;1.50;99.90;;;;;;5026315;28;20721;-57
2023/03/03 05:25:27;;;;;;;151.18;61.72;;;1.50;99.90;;;;;;5027182;28;20242;-57
2023/03/03 05:27:53;;;;;;;141.63;60.95;;;1.50;99.90;;;;;;5026108;28;20033;-57
2023/03/03 05:30:19;;;;;;;145.05;64.20;;;1.50;99.90;;;;;;5019804;28;20033;-57
2023/03/03 05:32:45;;;;;;;118.68;52.33;;;1.60;99.90;;;;;;5019239;28;20041;-57
2023/03/03 05:35:11;;;;;;;112.65;46.33;;;1.50;99.90;;;;;;5009578;28;20113;-57
2023/03/03 05:37:38;;;;;;;118.65;48.25;;;1.40;99.90;;;;;;5027093;28;20263;-57
2023/03/03 05:40:05;;;;;;;131.25;50.30;;;1.40;99.90;;;;;;5024158;28;20064;-57
2023/03/03 05:42:31;;;;;;;127.38;50.35;;;1.50;99.90;;;;;;5015340;28;20038;-56
2023/03/03 05:44:56;;;;;;;128.13;50.97;;;1.60;99.90;;;;;;5007260;28;20041;-57
2023/03/03 05:47:22;;;;;;;125.50;49.17;;;1.60;99.90;;;;;;5026011;28;20040;-56
2023/03/03 05:49:47;;;;;;;118.93;48.42;;;1.40;99.90;;;;;;5006639;28;20076;-56
2023/03/03 05:52:13;;;;;;;128.63;48.70;;;1.40;99.90;;;;;;5015240;28;20030;-57
2023/03/03 05:54:38;;;;;;;121.88;42.40;;;1.30;99.90;;;;;;5012239;28;20087;-56
2023/03/03 05:57:04;;;;;;;140.35;53.45;;;1.30;99.90;;;;;;5022041;28;20496;-56
2023/03/03 05:59:30;;;;;;;144.10;56.90;;;1.40;99.90;;;;;;5017312;28;20553;-57
2023/03/03 06:01:55;;;;;;;153.35;58.45;;;1.60;99.90;;;;;;5018201;28;20453;-57
2023/03/03 06:04:21;;;;;;;160.25;61.67;;;1.50;99.90;;;;;;5017416;28;20038;-57
2023/03/03 06:06:46;;;;;;;159.48;64.00;;;1.50;99.90;;;;;;5019380;28;20086;-57
2023/03/03 06:09:12;;;;;;;162.75;60.85;;;1.50;99.90;;;;;;5014706;28;20030;-57
2023/03/03 06:11:38;;;;;;;149.88;57.38;;;1.60;99.90;;;;;;5021111;28;20033;-57
2023/03/03 06:14:04;;;;;;;158.38;58.80;;;1.80;99.90;;;;;;5018505;28;20033;-56
2023/03/03 06:16:29;;;;;;;140.38;54.47;;;1.80;99.90;;;;;;5025283;28;20559;-56
2023/03/03 06:18:55;;;;;;;133.07;53.65;;;1.80;99.90;;;;;;5017832;28;20511;-57
2023/03/03 06:21:20;;;;;;;138.50;53.85;;;1.80;99.90;;;;;;5021601;28;20040;-57
2023/03/03 06:23:46;;;;;;;138.98;52.85;;;1.80;99.90;;;;;;5021871;28;20036;-57
2023/03/03 06:26:12;;;;;;;136.65;52.20;;;1.80;99.90;;;;;;5017439;28;20063;-57
2023/03/03 06:28:37;;;;;;;127.65;51.67;;;2.00;99.90;;;;;;5019296;28;20030;-57
2023/03/03 06:31:03;;;;;;;120.68;48.28;;;2.20;99.90;;;;;;5019304;28;20103;-57
2023/03/03 06:33:28;;;;;;;119.55;48.42;;;2.10;99.90;;;;;;5013462;28;20094;-57
2023/03/03 06:35:54;;;;;;;118.75;46.08;;;2.10;99.90;;;;;;5020327;28;20053;-57
2023/03/03 06:38:20;;;;;;;119.88;47.67;;;2.00;99.90;;;;;;5024554;28;20076;-58
2023/03/03 06:40:46;;;;;;;115.20;48.45;;;2.10;99.90;;;;;;5019141;28;20529;-57
2023/03/03 06:43:12;;;;;;;112.65;46.25;;;2.40;99.90;;;;;;5019549;28;20045;-57
2023/03/03 06:45:38;;;;;;;82.38;31.02;;;2.50;99.90;;;;;;5021155;28;20180;-57
2023/03/03 06:48:04;;;;;;;84.50;33.95;;;2.10;99.90;;;;;;5004117;28;20454;-56
2023/03/03 06:50:30;;;;;;;85.85;32.33;;;1.80;99.90;;;;;;5030115;28;20048;-56
2023/03/03 06:53:12;;;;;;;92.03;35.72;;;1.70;99.90;;;;;;5015368;28;20041;-57
2023/03/03 06:55:38;;;;;;;98.20;37.70;;;1.80;99.90;;;;;;5016634;28;20053;-57
2023/03/03 06:58:16;;;;;;;95.45;38.53;;;1.80;99.90;;;;;;5016522;28;20091;-57
2023/03/03 07:00:43;;;;;;;103.05;40.08;;;1.80;99.90;;;;;;5026727;28;20082;-57
2023/03/03 07:03:17;;;;;;;99.32;37.63;;;1.90;99.90;;;;;;5019726;28;20033;-56
2023/03/03 07:05:43;;;;;;;94.30;37.53;;;2.00;99.90;;;;;;5029944;28;20044;-58
2023/03/03 07:08:17;;;;;;;91.97;38.85;;;2.10;99.90;;;;;;5027679;28;20038;-57
2023/03/03 07:10:44;;;;;;;95.43;37.85;;;2.10;99.90;;;;;;5027306;28;20056;-58
2023/03/03 07:13:26;;;;;;;86.82;35.65;;;1.90;99.90;;;;;;5024354;28;20037;-57
2023/03/03 07:15:54;;;;;;;95.10;38.70;;;2.00;99.90;;;;;;5026436;28;20034;-58
2023/03/03 07:18:37;;;;;;;90.10;36.75;;;1.90;99.90;;;;;;5025202;28;20041;-57
2023/03/03 07:21:18;;;;;;;93.05;37.35;;;2.00;99.90;;;;;;5025318;28;20034;-58
2023/03/03 07:23:46;;;;;;;86.13;34.75;;;2.00;99.90;;;;;;5019945;28;20038;-58
2023/03/03 07:26:14;;;;;;;93.57;36.75;;;2.20;99.90;;;;;;5029104;28;20033;-57
2023/03/03 07:28:58;;;;;;;82.65;34.53;;;2.30;99.90;;;;;;5026146;28;20560;-58
2023/03/03 07:31:39;;;;;;;81.38;32.72;;;2.20;99.90;;;;;;5028140;28;20068;-58
2023/03/03 07:34:16;;;;;;;89.43;37.97;;;2.60;99.90;;;;;;5025293;28;20037;-57
2023/03/03 07:36:42;;;;;;;91.30;35.20;;;2.40;99.90;;;;;;5034814;28;20700;-58
2023/03/03 07:39:32;;;;;;;81.43;33.67;;;2.30;99.90;;;;;;5023741;28;20068;-58
2023/03/03 07:42:20;;;;;;;84.25;35.25;;;2.30;99.90;;;;;;5030318;28;20034;-57
2023/03/03 07:44:49;;;;;;;84.47;36.63;;;2.10;99.90;;;;;;5024743;28;20026;-58
2023/03/03 07:47:35;;;;;;;80.93;34.75;;;2.20;99.90;;;;;;5026348;28;20029;-58
2023/03/03 07:50:14;;;;;;;84.22;33.13;;;2.20;99.90;;;;;;5027418;28;20047;-58
2023/03/03 07:52:59;;;;;;;89.72;36.90;;;2.30;99.90;;;;;;5045260;28;20025;-58
2023/03/03 07:55:36;;;;;;;95.15;38.90;;;2.10;99.90;;;;;;5040403;28;20036;-57
2023/03/03 07:58:13;;;;;;;91.68;38.08;;;2.10;99.90;;;;;;5043770;28;20117;-56
2023/03/03 08:00:39;;;;;;;95.72;38.20;;;1.80;99.90;;;;;;5040919;28;20505;-57
2023/03/03 08:03:19;;;;;;;94.03;40.00;;;1.90;99.90;;;;;;5039948;28;20044;-57
2023/03/03 08:05:49;;;;;;;95.07;38.45;;;2.10;99.90;;;;;;5056570;28;20024;-58
2023/03/03 08:08:29;;;;;;;103.60;39.22;;;2.10;99.90;;;;;;5050916;28;20040;-57
2023/03/03 08:10:59;;;;;;;97.55;40.85;;;2.30;99.90;;;;;;5042645;28;20543;-58
2023/03/03 08:13:35;;;;;;;103.75;41.90;;;2.20;99.90;;;;;;5053138;28;20033;-57
2023/03/03 08:16:20;;;;;;;103.20;39.47;;;2.10;99.90;;;;;;5044722;28;20041;-57
2023/03/03 08:18:47;;;;;;;111.05;45.97;;;2.00;99.90;;;;;;5044344;28;20547;-57
2023/03/03 08:21:13;;;;;;;121.75;46.70;;;2.10;99.90;;;;;;5051481;28;20051;-58
2023/03/03 08:23:38;;;;;;;116.05;43.15;;;2.10;99.90;;;;;;5043360;28;20033;-57
2023/03/03 08:26:04;;;;;;;119.30;45.83;;;2.10;99.90;;;;;;5049171;28;20030;-58
2023/03/03 08:28:30;;;;;;;101.95;42.63;;;2.00;99.90;;;;;;5049168;28;20064;-58
2023/03/03 08:30:55;;;;;;;110.70;43.88;;;2.00;99.90;;;;;;5044204;28;20061;-57
2023/03/03 08:33:21;;;;;;;100.22;40.15;;;2.10;99.90;;;;;;5060721;28;20055;-57
2023/03/03 08:35:47;;;;;;;105.07;40.10;;;2.20;99.90;;;;;;5052824;28;20135;-57
2023/03/03 08:38:17;;;;;;;92.00;37.67;;;2.30;99.90;;;;;;5045079;28;20085;-57
2023/03/03 08:40:43;;;;;;;94.80;39.67;;;2.40;99.90;;;;;;5045949;28;20436;-58
2023/03/03 08:43:12;;;;;;;107.07;44.58;;;2.40;99.90;;;;;;5052990;28;20086;-58
2023/03/03 08:45:38;;;;;;;141.05;56.35;;;2.40;99.90;;;;;;5045010;28;20443;-58
2023/03/03 08:48:04;;;;;;;132.00;56.28;;;2.30;99.90;;;;;;5046336;28;20119;-58
2023/03/03 08:50:30;;;;;;;126.72;52.38;;;2.60;99.90;;;;;;5050042;28;20131;-57
2023/03/03 08:52:56;;;;;;;115.20;48.20;;;2.50;99.90;;;;;;5048676;28;20467;-57
2023/03/03 08:55:21;;;;;;;115.95;47.72;;;2.50;99.90;;;;;;5044399;28;20041;-57
2023/03/03 08:57:47;;;;;;;116.63;49.80;;;2.40;99.90;;;;;;5055461;28;20453;-57
2023/03/03 09:00:15;;;;;;;122.60;52.78;;;2.60;99.90;;;;;;5045626;28;20040;-58
2023/03/03 09:02:41;;;;;;;133.98;57.67;;;2.40;99.90;;;;;;5029919;28;20446;-58
2023/03/03 09:05:08;;;;;;;111.93;48.00;;;2.40;99.90;;;;;;5043160;28;20079;-58
2023/03/03 09:07:34;;;;;;;106.82;41.33;;;2.40;99.90;;;;;;5048216;28;20064;-58
2023/03/03 09:09:59;;;;;;;96.75;39.25;;;2.40;99.90;;;;;;5046739;28;20032;-58
2023/03/03 09:12:34;;;;;;;97.55;40.90;;;2.20;99.90;;;;;;5045645;28;20025;-58
2023/03/03 09:15:11;;;;;;;103.25;40.47;;;2.20;99.90;;;;;;5050609;28;20532;-57
2023/03/03 09:17:37;;;;;;;98.82;43.85;;;2.40;99.90;;;;;;5046627;28;20132;-58
2023/03/03 09:20:38;;;;;;;109.70;45.65;;;2.60;99.90;;;;;;5048771;28;20119;-57
2023/03/03 09:23:33;;;;;;;106.25;41.83;;;2.60;99.90;;;;;;5046477;28;20055;-57
2023/03/03 09:26:21;;;;;;;109.95;42.83;;;2.50;99.90;;;;;;5045143;28;20037;-58
2023/03/03 09:28:46;;;;;;;110.53;43.72;;;2.40;99.90;;;;;;5031782;28;20409;-58
2023/03/03 09:31:25;;;;;;;111.82;42.00;;;2.50;99.90;;;;;;5020704;28;20030;-57
2023/03/03 09:33:54;;;;;;;121.70;52.80;;;2.40;99.90;;;;;;5032230;28;20420;-58
2023/03/03 09:36:36;;;;;;;101.85;44.28;;;2.60;99.90;;;;;;5034015;28;20025;-58
2023/03/03 09:39:18;;;;;;;105.27;48.07;;;2.50;99.90;;;;;;5029427;28;20112;-56
2023/03/03 09:41:53;;;;;;;101.50;43.80;;;2.50;99.90;;;;;;5027961;28;20083;-57
2023/03/03 09:44:40;;;;;;;97.10;40.72;;;2.60;99.90;;;;;;5028126;28;20025;-57
2023/03/03 09:47:21;;;;;;;99.07;43.63;;;2.60;99.90;;;;;;5029719;28;20506;-57
2023/03/03 09:50:08;;;;;;;99.00;43.88;;;2.70;99.90;;;;;;5035725;28;20056;-57
2023/03/03 09:52:42;;;;;;;138.00;58.25;;;2.80;99.90;;;;;;5030002;28;20039;-58
2023/03/03 09:55:37;;;;;;;127.40;54.42;;;2.60;99.90;;;;;;5024578;28;20021;-57
2023/03/03 09:58:44;;;;;;;135.55;59.92;;;2.60;99.90;;;;;;5034172;28;20046;-57
2023/03/03 10:01:29;;;;;;;125.43;53.40;;;2.90;99.90;;;;;;5029879;28;20053;-57
2023/03/03 10:04:09;;;;;;;121.55;52.75;;;2.90;99.90;;;;;;5030131;28;20468;-57
2023/03/03 10:07:03;;;;;;;126.80;53.40;;;2.70;99.90;;;;;;5022797;28;20037;-57
2023/03/03 10:09:37;;;;;;;128.52;54.45;;;2.90;99.90;;;;;;5029949;28;20057;-57
2023/03/03 10:12:23;;;;;;;127.72;56.70;;;2.90;99.90;;;;;;5032445;28;20120;-57
2023/03/03 10:15:15;;;;;;;129.52;58.42;;;3.00;99.90;;;;;;5026863;28;20040;-58
2023/03/03 10:17:52;;;;;;;135.48;57.00;;;3.30;99.90;;;;;;5025554;28;20121;-57
2023/03/03 10:20:43;;;;;;;125.50;52.10;;;3.20;99.90;;;;;;5026689;28;20448;-57
2023/03/03 10:23:22;;;;;;;124.47;52.42;;;2.80;99.90;;;;;;5025773;28;20112;-58
2023/03/03 10:26:14;;;;;;;117.95;52.20;;;3.00;99.90;;;;;;5037367;28;20025;-57
2023/03/03 10:29:18;;;;;;;129.07;56.65;;;3.20;99.90;;;;;;4983146;28;20485;-57
2023/03/03 10:32:28;;;;;;;122.25;49.65;;;3.40;99.90;;;;;;5036978;28;20052;-57
2023/03/03 10:35:21;;;;;;;122.78;52.65;;;3.20;99.90;;;;;;5029761;28;20136;-58
2023/03/03 10:38:10;;;;;;;126.10;53.00;;;3.20;99.90;;;;;;5028010;28;20094;-57
2023/03/03 10:41:04;;;;;;;121.00;51.67;;;3.30;99.90;;;;;;5024582;28;20044;-57
2023/03/03 10:43:32;;;;;;;;;;;3.00;99.90;;;;;;5025054;28;20519;-58
2023/03/03 10:49:23;;;;;;;133.02;54.20;;;2.80;99.90;;;;;;5797307;22;20346;-55
2023/03/03 10:52:09;;;;;;;134.02;52.78;;;3.10;99.90;;;;;;5063054;28;20059;-54
2023/03/03 10:54:59;;;;;;;137.07;55.55;;;3.30;99.90;;;;;;5050534;28;20485;-54
2023/03/03 10:57:46;;;;;;;133.63;55.13;;;3.20;99.90;;;;;;5052611;28;20118;-52
2023/03/03 11:00:30;;;;;;;129.70;55.20;;;3.00;99.90;;;;;;5048127;28;20825;-53
2023/03/03 11:03:15;;;;;;;127.72;53.63;;;3.00;99.90;;;;;;5056476;28;20045;-54
2023/03/03 11:06:05;;;;;;;112.63;43.05;;;3.30;99.90;;;;;;5045435;28;20491;-53
2023/03/03 11:08:40;;;;;;;118.28;49.38;;;3.20;99.90;;;;;;5047407;28;20037;-53
2023/03/03 11:11:47;;;;;;;122.07;48.78;;;3.30;99.90;;;;;;5043958;28;20052;-54
2023/03/03 11:14:46;;;;;;;123.05;49.97;;;3.20;99.90;;;;;;5044742;28;20025;-55
2023/03/03 11:17:12;;;;;;;112.53;47.20;;;3.60;99.90;;;;;;5045832;28;20049;-53
2023/03/03 11:19:58;;;;;;;117.53;49.25;;;3.60;99.90;;;;;;5046195;28;20472;-53
2023/03/03 11:22:37;;;;;;;118.80;49.67;;;3.60;99.90;;;;;;5042226;28;20033;-53
2023/03/03 11:25:16;;;;;;;110.13;47.20;;;3.80;99.90;;;;;;5044769;28;20029;-54
2023/03/03 11:28:11;;;;;;;116.47;49.72;;;3.70;99.90;;;;;;5044534;28;20037;-53
2023/03/03 11:31:08;;;;;;;123.10;50.65;;;3.70;99.90;;;;;;5065975;28;20049;-54
2023/03/03 11:33:44;;;;;;;120.40;52.80;;;3.50;99.90;;;;;;5050334;28;20418;-54
2023/03/03 11:36:31;;;;;;;116.00;50.65;;;3.40;99.90;;;;;;5044712;28;20649;-55
2023/03/03 11:39:00;;;;;;;109.32;47.78;;;3.50;99.90;;;;;;5045345;28;20036;-52
2023/03/03 11:41:31;;;;;;;104.03;45.13;;;3.40;99.90;;;;;;5064390;28;20043;-54
2023/03/03 11:44:26;;;;;;;101.93;46.15;;;3.50;99.90;;;;;;5067928;28;20460;-55
2023/03/03 11:47:03;;;;;;;101.20;45.22;;;3.70;99.90;;;;;;5044943;28;20041;-54
2023/03/03 11:49:59;;;;;;;104.35;47.97;;;3.70;99.90;;;;;;5039287;28;20026;-52
2023/03/03 11:52:43;;;;;;;105.63;49.53;;;3.60;99.90;;;;;;5034326;28;20064;-50
2023/03/03 11:55:29;;;;;;;113.93;52.50;;;3.90;99.90;;;;;;5034585;28;20604;-53
2023/03/03 11:58:13;;;;;;;121.25;52.35;;;4.00;99.90;;;;;;5017186;28;20086;-52
2023/03/03 12:00:53;;;;;;;105.60;50.00;;;4.00;99.90;;;;;;5055163;28;20047;-51
2023/03/03 12:03:39;;;;;;;108.65;50.42;;;3.80;99.90;;;;;;5051607;28;20055;-51
2023/03/03 12:06:29;;;;;;;115.60;54.47;;;3.90;99.90;;;;;;5055564;28;20039;-51
2023/03/03 12:08:57;;;;;;;115.03;55.10;;;4.00;99.90;;;;;;5051854;28;20120;-50
2023/03/03 12:11:25;;;;;;;101.65;49.53;;;4.10;99.90;;;;;;5052415;28;20111;-53
2023/03/03 12:13:56;;;;;;;106.50;50.17;;;4.00;99.90;;;;;;5053902;28;20518;-51
2023/03/03 12:16:38;;;;;;;97.90;47.75;;;4.40;99.90;;;;;;5058358;28;20064;-53
2023/03/03 12:19:48;;;;;;;98.13;47.58;;;4.50;99.90;;;;;;5058701;28;20025;-51
2023/03/03 12:22:39;;;;;;;90.05;41.38;;;4.50;99.90;;;;;;5056250;28;20040;-49
2023/03/03 12:25:16;;;;;;;95.53;43.50;;;4.10;99.90;;;;;;5054669;28;20116;-50
2023/03/03 12:28:08;;;;;;;99.47;46.13;;;4.00;99.90;;;;;;5057319;28;20208;-50
2023/03/03 12:31:02;;;;;;;97.13;47.75;;;4.00;99.90;;;;;;5049585;28;20374;-49
2023/03/03 12:34:01;;;;;;;96.25;44.85;;;4.30;99.90;;;;;;5054272;28;20041;-49
2023/03/03 12:36:49;;;;;;;97.82;44.75;;;3.90;99.90;;;;;;5038873;28;20033;-50
2023/03/03 12:39:29;;;;;;;103.93;45.22;;;4.00;99.90;;;;;;5045212;28;20029;-53
2023/03/03 12:42:12;;;;;;;98.00;45.00;;;4.40;99.90;;;;;;5044619;28;20029;-53
2023/03/03 12:45:10;;;;;;;97.97;46.05;;;4.70;99.90;;;;;;5057265;28;20475;-49
2023/03/03 12:48:06;;;;;;;98.85;45.20;;;4.50;99.90;;;;;;5006171;28;20400;-52
2023/03/03 12:51:06;;;;;;;99.75;48.05;;;4.10;99.90;;;;;;5002227;28;20036;-52
2023/03/03 12:53:37;;;;;;;105.97;48.50;;;4.30;99.90;;;;;;5055044;28;20487;-51
2023/03/03 12:56:12;;;;;;;97.32;46.85;;;4.40;99.90;;;;;;5055164;28;20364;-51
2023/03/03 12:59:19;;;;;;;96.85;45.65;;;4.60;99.90;;;;;;5042681;28;20404;-53
2023/03/03 13:02:11;;;;;;;98.53;42.72;;;4.60;99.90;;;;;;5032537;28;20495;-50
2023/03/03 13:04:53;;;;;;;89.82;43.67;;;4.50;99.90;;;;;;5057208;28;20055;-51